Time;durP1;ratioP1;P1;durP2;ratioP2;P2;SDS_P1;SDS_P2;PMS_P1;PMS_P2;Temp;Humidity;BMP_temperature;BMP_pressure;BME280_temperature;BME280_humidity;BME280_pressure;Samples;Min_cycle;Max_cycle;Signal;HPM_P1;HPM_P2
2021/12/09 00:02:20;;;;;;;33.03;17.73;;;0.40;99.90;0.10;99312.00;;;;5018278;27;87640;-65
2021/12/09 00:04:48;;;;;;;42.67;18.33;;;0.50;99.90;0.10;99318.00;;;;5016932;27;87904;-65
2021/12/09 00:07:14;;;;;;;44.67;20.43;;;0.30;99.90;0.10;99309.00;;;;5016108;27;88104;-64
2021/12/09 00:09:40;;;;;;;37.47;18.10;;;0.40;99.90;0.10;99310.00;;;;5015967;27;107495;-65
2021/12/09 00:12:08;;;;;;;39.07;18.77;;;0.40;99.90;0.10;99300.00;;;;5015547;27;94121;-65
2021/12/09 00:14:35;;;;;;;34.83;17.60;;;0.50;99.90;0.10;99287.00;;;;5027552;27;87074;-64
2021/12/09 00:17:06;;;;;;;33.57;18.53;;;0.40;99.90;0.10;99291.00;;;;5015890;27;88639;-64
2021/12/09 00:19:33;;;;;;;37.50;18.93;;;0.30;99.90;0.10;99295.00;;;;5015018;27;90472;-65
2021/12/09 00:22:01;;;;;;;36.87;19.97;;;0.40;99.90;0.10;99288.00;;;;5019966;27;88958;-65
2021/12/09 00:24:27;;;;;;;37.07;18.27;;;0.40;99.90;0.00;99296.00;;;;5030075;27;87778;-64
2021/12/09 00:26:54;;;;;;;31.97;17.67;;;0.40;99.90;0.00;99298.00;;;;5031438;27;118355;-64
2021/12/09 00:29:19;;;;;;;28.10;17.50;;;0.40;99.90;0.00;99294.00;;;;5022700;27;93849;-66
2021/12/09 00:31:47;;;;;;;36.23;17.30;;;0.40;99.90;0.00;99298.00;;;;5015543;27;113238;-66
2021/12/09 00:34:14;;;;;;;36.97;17.73;;;0.30;99.90;0.00;99314.00;;;;5016377;27;87802;-64
2021/12/09 00:36:56;;;;;;;38.87;18.07;;;0.40;99.90;0.00;99306.00;;;;5016153;27;88189;-64
2021/12/09 00:39:22;;;;;;;31.23;17.80;;;0.30;99.90;0.00;99307.00;;;;5016142;27;87809;-63
2021/12/09 00:41:47;;;;;;;38.40;17.97;;;0.30;99.90;0.00;99321.00;;;;5035647;27;99384;-64
2021/12/09 00:44:13;;;;;;;35.43;16.93;;;0.30;99.90;0.10;99323.00;;;;5035332;27;109180;-66
2021/12/09 00:46:39;;;;;;;40.87;20.23;;;0.40;99.90;0.10;99326.00;;;;5035209;27;89501;-66
2021/12/09 00:49:06;;;;;;;39.00;17.47;;;0.30;99.90;0.10;99340.00;;;;5015507;27;90973;-65
2021/12/09 00:51:32;;;;;;;33.73;17.93;;;0.40;99.90;0.10;99328.00;;;;5015162;27;87554;-65
2021/12/09 00:53:58;;;;;;;31.93;17.47;;;0.50;99.90;0.10;99345.00;;;;5015148;27;100260;-65
2021/12/09 00:56:24;;;;;;;42.07;18.93;;;0.30;99.90;0.10;99348.00;;;;5020327;27;115852;-65
2021/12/09 00:58:50;;;;;;;31.60;18.40;;;0.30;99.90;0.00;99349.00;;;;5035462;27;88851;-65
2021/12/09 01:01:16;;;;;;;39.20;17.47;;;0.30;99.90;0.00;99347.00;;;;5035960;27;87614;-65
2021/12/09 01:03:43;;;;;;;38.20;19.20;;;0.30;99.90;0.00;99341.00;;;;5036252;27;87218;-66
2021/12/09 01:06:10;;;;;;;39.93;18.60;;;0.40;99.90;0.00;99347.00;;;;5033895;27;98417;-66
2021/12/09 01:08:36;;;;;;;35.00;19.33;;;0.80;99.90;0.00;99349.00;;;;5015795;27;88823;-65
2021/12/09 01:11:03;;;;;;;33.77;16.90;;;0.30;99.90;0.00;99349.00;;;;5014256;27;103430;-66
2021/12/09 01:13:29;;;;;;;33.10;17.07;;;0.30;99.90;0.00;99349.00;;;;5015759;27;87786;-65
2021/12/09 01:15:56;;;;;;;35.20;17.10;;;0.30;99.90;0.00;99352.00;;;;5024867;27;109238;-65
2021/12/09 01:18:22;;;;;;;29.53;17.07;;;0.20;99.90;0.00;99346.00;;;;5034784;27;107568;-66
2021/12/09 01:20:48;;;;;;;44.83;18.20;;;0.30;99.90;0.00;99351.00;;;;5016057;27;113580;-66
2021/12/09 01:23:14;;;;;;;32.17;18.17;;;0.30;99.90;0.00;99352.00;;;;5015920;27;87508;-62
2021/12/09 01:25:40;;;;;;;34.80;18.93;;;0.30;99.90;0.00;99364.00;;;;5021749;27;103386;-63
2021/12/09 01:28:14;;;;;;;36.43;19.87;;;1.10;99.90;-0.10;99364.00;;;;5015041;27;87913;-63
2021/12/09 01:30:40;;;;;;;33.53;18.20;;;0.20;99.90;-0.10;99367.00;;;;5016720;27;87716;-65
2021/12/09 01:33:06;;;;;;;44.43;19.53;;;0.30;99.90;-0.10;99363.00;;;;5015698;27;88125;-65
2021/12/09 01:35:34;;;;;;;32.13;20.10;;;0.20;99.90;-0.10;99365.00;;;;5014802;27;89650;-64
2021/12/09 01:38:09;;;;;;;37.23;18.93;;;0.30;99.90;-0.10;99352.00;;;;5015315;27;87811;-64
2021/12/09 01:40:35;;;;;;;40.20;18.60;;;0.20;99.90;-0.10;99359.00;;;;5015037;27;87473;-65
2021/12/09 01:43:01;;;;;;;34.53;19.00;;;0.20;99.90;-0.10;99351.00;;;;5014772;27;100237;-64
2021/12/09 01:45:27;;;;;;;42.10;20.03;;;0.20;99.90;0.00;99359.00;;;;5013112;27;116484;-64
2021/12/09 01:47:54;;;;;;;43.03;21.03;;;0.20;99.90;-0.10;99353.00;;;;5025828;27;100217;-65
2021/12/09 01:50:22;;;;;;;40.80;20.37;;;0.40;99.90;-0.10;99354.00;;;;5026106;27;102371;-66
2021/12/09 01:52:48;;;;;;;36.97;19.77;;;0.20;99.90;-0.10;99351.00;;;;5025779;27;87058;-65
2021/12/09 01:55:16;;;;;;;37.83;18.07;;;0.30;99.90;-0.10;99356.00;;;;5033764;27;107290;-66
2021/12/09 01:57:42;;;;;;;38.53;20.73;;;0.20;99.90;-0.10;99363.00;;;;5034614;27;103845;-64
2021/12/09 02:00:13;;;;;;;29.47;19.23;;;0.20;99.90;0.00;99351.00;;;;5031402;27;103798;-65
2021/12/09 02:02:41;;;;;;;44.63;20.77;;;0.30;99.90;0.00;99365.00;;;;5035314;27;87974;-65
2021/12/09 02:05:09;;;;;;;42.63;20.50;;;0.20;99.90;0.00;99362.00;;;;5037900;27;89355;-65
2021/12/09 02:07:35;;;;;;;42.03;18.80;;;0.30;99.90;0.00;99369.00;;;;5036275;27;90157;-66
2021/12/09 02:10:02;;;;;;;39.57;19.47;;;0.30;99.90;0.00;99362.00;;;;5037286;27;103713;-63
2021/12/09 02:12:28;;;;;;;43.20;19.53;;;0.30;99.90;0.00;99376.00;;;;5038552;27;96671;-64
2021/12/09 02:14:58;;;;;;;51.57;22.83;;;0.30;99.90;0.10;99372.00;;;;5035909;27;117210;-64
2021/12/09 02:17:30;;;;;;;31.93;18.07;;;0.40;99.90;0.10;99364.00;;;;5038129;27;88720;-65
2021/12/09 02:20:00;;;;;;;43.17;19.17;;;0.40;99.90;0.10;99369.00;;;;5034747;27;101725;-66
2021/12/09 02:22:28;;;;;;;44.53;20.53;;;0.30;99.90;0.10;99373.00;;;;5016007;27;87892;-64
2021/12/09 02:24:56;;;;;;;43.87;21.20;;;0.40;99.90;0.10;99368.00;;;;5018625;27;88943;-65
2021/12/09 02:27:23;;;;;;;36.60;19.67;;;0.40;99.90;0.10;99366.00;;;;5018307;27;89371;-65
2021/12/09 02:29:52;;;;;;;41.20;19.63;;;0.80;99.90;0.10;99370.00;;;;5017941;27;87688;-66
2021/12/09 02:32:18;;;;;;;46.40;19.57;;;0.50;99.90;0.10;99360.00;;;;5018310;27;98168;-66
2021/12/09 02:34:44;;;;;;;46.47;20.23;;;0.40;99.90;0.10;99349.00;;;;5019459;27;89367;-62
2021/12/09 02:37:13;;;;;;;35.90;20.30;;;0.30;99.90;0.10;99362.00;;;;5016987;27;113709;-64
2021/12/09 02:39:39;;;;;;;51.83;21.37;;;0.30;99.90;0.10;99356.00;;;;5017592;27;87700;-65
2021/12/09 02:42:05;;;;;;;47.03;21.13;;;0.30;99.90;0.10;99356.00;;;;5017988;27;97527;-66
2021/12/09 02:44:30;;;;;;;41.50;20.63;;;0.40;99.90;0.10;99354.00;;;;5019669;27;109288;-64
2021/12/09 02:46:56;;;;;;;36.37;19.17;;;0.40;99.90;0.00;99346.00;;;;5017405;27;88147;-65
2021/12/09 02:49:29;;;;;;;42.20;22.00;;;0.40;99.90;0.00;99343.00;;;;5027856;27;88650;-65
2021/12/09 02:51:58;;;;;;;34.87;20.30;;;0.30;99.90;0.00;99343.00;;;;5017909;27;87869;-65
2021/12/09 02:54:25;;;;;;;48.33;22.80;;;0.30;99.90;0.00;99341.00;;;;5017324;27;88941;-66
2021/12/09 02:56:59;;;;;;;44.30;21.73;;;0.40;99.90;0.00;99338.00;;;;5016899;27;96832;-64
2021/12/09 02:59:26;;;;;;;35.23;19.67;;;0.30;99.90;0.00;99345.00;;;;5017653;27;87946;-64
2021/12/09 03:01:57;;;;;;;34.70;18.50;;;0.00;99.90;0.00;99348.00;;;;5017472;27;87982;-66
2021/12/09 03:04:37;;;;;;;38.10;22.00;;;0.30;99.90;0.00;99344.00;;;;5017432;27;89013;-66
2021/12/09 03:07:18;;;;;;;44.00;20.73;;;0.20;99.90;0.00;99337.00;;;;5015486;27;87535;-66
2021/12/09 03:09:50;;;;;;;39.73;19.97;;;0.30;99.90;0.00;99337.00;;;;5016871;27;87929;-66
2021/12/09 03:12:23;;;;;;;41.27;21.10;;;0.30;99.90;0.00;99334.00;;;;5031963;27;87936;-66
2021/12/09 03:14:49;;;;;;;36.87;19.90;;;0.30;99.90;0.00;99334.00;;;;5025963;27;109475;-65
2021/12/09 03:17:17;;;;;;;47.47;21.47;;;0.40;99.90;0.00;99331.00;;;;5033074;27;87736;-65
2021/12/09 03:19:43;;;;;;;43.90;21.83;;;0.30;99.90;0.00;99330.00;;;;5037047;27;96107;-65
2021/12/09 03:22:09;;;;;;;34.77;19.33;;;0.30;99.90;0.00;99326.00;;;;5037522;27;88138;-64
2021/12/09 03:24:35;;;;;;;45.80;20.60;;;0.40;99.90;0.00;99335.00;;;;5035261;27;88689;-65
2021/12/09 03:27:02;;;;;;;43.30;21.10;;;0.40;99.90;0.00;99325.00;;;;5016772;27;113340;-64
2021/12/09 03:29:29;;;;;;;40.23;23.20;;;0.40;99.90;0.10;99324.00;;;;5017246;27;87812;-65
2021/12/09 03:32:08;;;;;;;35.83;19.47;;;0.30;99.90;0.00;99330.00;;;;5017213;27;89243;-65
2021/12/09 03:34:35;;;;;;;38.60;21.00;;;0.40;99.90;0.10;99331.00;;;;5015341;27;109416;-65
2021/12/09 03:37:06;;;;;;;44.33;20.93;;;0.30;99.90;0.10;99341.00;;;;5016601;27;88627;-64
2021/12/09 03:39:36;;;;;;;41.30;21.70;;;0.30;99.90;0.00;99343.00;;;;5024813;27;88851;-66
2021/12/09 03:42:04;;;;;;;45.63;22.10;;;0.30;99.90;0.00;99361.00;;;;5037131;27;87899;-65
2021/12/09 03:44:31;;;;;;;42.13;20.93;;;1.10;99.90;0.00;99363.00;;;;5036843;27;88193;-65
2021/12/09 03:47:03;;;;;;;45.00;21.47;;;0.20;99.90;-0.10;99366.00;;;;5035674;27;106339;-65
2021/12/09 03:49:29;;;;;;;38.67;20.37;;;0.10;99.90;-0.10;99363.00;;;;5035651;27;106457;-65
2021/12/09 03:51:56;;;;;;;41.00;22.33;;;0.20;99.90;0.00;99359.00;;;;5035347;27;109272;-65
2021/12/09 03:54:24;;;;;;;46.97;22.27;;;0.30;99.90;0.00;99356.00;;;;5036820;27;88044;-65
2021/12/09 03:56:51;;;;;;;48.57;23.40;;;0.30;99.90;0.00;99364.00;;;;5016642;27;88964;-64
2021/12/09 03:59:16;;;;;;;42.40;21.20;;;0.30;99.90;0.00;99371.00;;;;5015809;27;101546;-64
2021/12/09 04:01:45;;;;;;;42.07;22.07;;;0.30;99.90;0.00;99375.00;;;;5035198;27;98938;-64
2021/12/09 04:04:12;;;;;;;42.73;22.50;;;0.20;99.90;0.00;99368.00;;;;5036406;27;89744;-65
2021/12/09 04:06:39;;;;;;;39.17;20.27;;;0.40;99.90;0.00;99371.00;;;;5036048;27;89155;-64
2021/12/09 04:09:09;;;;;;;36.80;19.67;;;0.30;99.90;0.00;99366.00;;;;5037020;27;88205;-65
2021/12/09 04:11:35;;;;;;;41.23;22.57;;;0.30;99.90;0.00;99367.00;;;;5017595;27;94879;-65
2021/12/09 04:14:00;;;;;;;43.47;22.57;;;0.40;99.90;0.00;99349.00;;;;5017237;27;87807;-65
2021/12/09 04:16:26;;;;;;;37.27;20.27;;;0.20;99.90;0.10;99324.00;;;;5013444;27;112080;-65
2021/12/09 04:18:52;;;;;;;45.20;22.27;;;0.30;99.90;0.10;99325.00;;;;5015855;27;103225;-65
2021/12/09 04:21:18;;;;;;;48.87;25.30;;;0.30;99.90;0.10;99337.00;;;;5015176;27;109716;-64
2021/12/09 04:23:43;;;;;;;38.43;20.50;;;0.30;99.90;0.10;99339.00;;;;5014820;27;114438;-66
2021/12/09 04:26:09;;;;;;;46.97;21.27;;;0.40;99.90;0.10;99333.00;;;;5015836;27;91004;-63
2021/12/09 04:28:37;;;;;;;42.77;21.80;;;0.30;99.90;0.10;99332.00;;;;5021642;27;88714;-64
2021/12/09 04:31:04;;;;;;;53.60;23.90;;;0.40;99.90;0.00;99338.00;;;;5016166;27;87817;-64
2021/12/09 04:33:30;;;;;;;44.83;21.73;;;0.40;99.90;0.10;99346.00;;;;5015682;27;89036;-66
2021/12/09 04:35:57;;;;;;;46.67;22.03;;;0.30;99.90;0.00;99363.00;;;;5026635;27;117898;-65
2021/12/09 04:38:23;;;;;;;48.10;22.93;;;0.30;99.90;0.00;99386.00;;;;5023337;27;88427;-64
2021/12/09 04:40:49;;;;;;;39.80;22.37;;;1.20;99.90;0.00;99376.00;;;;5016489;27;87730;-64
2021/12/09 04:43:15;;;;;;;43.43;22.23;;;0.30;99.90;0.00;99370.00;;;;5014911;27;116636;-67
2021/12/09 04:45:41;;;;;;;43.00;23.80;;;0.20;99.90;0.00;99371.00;;;;5014689;27;118098;-64
2021/12/09 04:48:07;;;;;;;42.53;22.87;;;0.50;99.90;0.00;99366.00;;;;5015906;27;88104;-65
2021/12/09 04:50:38;;;;;;;43.57;22.60;;;0.30;99.90;0.00;99360.00;;;;5025462;27;87544;-65
2021/12/09 04:53:06;;;;;;;46.53;23.57;;;0.20;99.90;0.00;99367.00;;;;5035089;27;104515;-65
2021/12/09 04:55:32;;;;;;;42.63;23.73;;;0.30;99.90;0.00;99364.00;;;;5035732;27;88532;-64
2021/12/09 04:57:57;;;;;;;46.03;22.97;;;0.30;99.90;0.00;99365.00;;;;5035513;27;87887;-64
2021/12/09 05:00:26;;;;;;;44.40;20.40;;;0.40;99.90;0.00;99368.00;;;;5034323;27;108939;-64
2021/12/09 05:03:06;;;;;;;47.77;23.10;;;0.30;99.90;0.00;99383.00;;;;5031846;27;97791;-64
2021/12/09 05:05:41;;;;;;;48.70;24.80;;;0.30;99.90;0.00;99395.00;;;;5014974;27;88432;-65
2021/12/09 05:08:11;;;;;;;48.57;25.53;;;0.40;99.90;0.00;99385.00;;;;5032299;27;97799;-64
2021/12/09 05:13:30;;;;;;;43.77;21.47;;;-0.50;99.90;0.00;99393.00;;;;5034448;27;87980;-64
2021/12/09 05:15:57;;;;;;;49.37;22.67;;;1.00;99.90;0.00;99384.00;;;;5033195;27;88774;-65
2021/12/09 05:18:26;;;;;;;50.90;23.47;;;0.40;99.90;0.00;99398.00;;;;5016468;27;88935;-64
2021/12/09 05:20:52;;;;;;;39.27;21.63;;;0.30;99.90;0.00;99381.00;;;;5023313;27;87809;-64
2021/12/09 05:23:20;;;;;;;43.50;22.97;;;0.30;99.90;0.00;99363.00;;;;5035571;27;88416;-64
2021/12/09 05:25:46;;;;;;;47.47;21.87;;;0.40;99.90;0.00;99351.00;;;;5035492;27;87993;-65
2021/12/09 05:28:16;;;;;;;42.40;21.63;;;0.30;99.90;0.00;99377.00;;;;5034280;27;89628;-66
2021/12/09 05:33:33;;;;;;;49.70;22.63;;;0.30;99.90;0.00;99381.00;;;;5014458;27;87665;-64
2021/12/09 05:35:59;;;;;;;47.63;22.60;;;0.50;99.90;0.00;99376.00;;;;5033215;27;88509;-65
2021/12/09 05:38:25;;;;;;;42.10;24.07;;;0.30;99.90;0.00;99393.00;;;;5034401;27;87825;-65
2021/12/09 05:40:51;;;;;;;46.87;23.17;;;1.30;99.90;0.00;99386.00;;;;5033164;27;87911;-65
2021/12/09 05:43:18;;;;;;;47.07;26.00;;;0.30;99.90;0.00;99391.00;;;;5034716;27;89446;-66
2021/12/09 05:45:46;;;;;;;49.63;23.03;;;0.30;99.90;0.00;99398.00;;;;5022833;27;89931;-66
2021/12/09 05:48:12;;;;;;;42.77;23.53;;;0.30;99.90;0.00;99387.00;;;;5014230;27;101653;-65
2021/12/09 05:50:39;;;;;;;45.30;21.60;;;0.30;99.90;0.00;99386.00;;;;5015792;27;87737;-66
2021/12/09 05:53:05;;;;;;;50.83;22.47;;;0.20;99.90;0.00;99372.00;;;;5011900;27;89377;-65
2021/12/09 05:55:31;;;;;;;49.83;23.37;;;0.30;99.90;0.00;99389.00;;;;5014502;27;89331;-66
2021/12/09 05:57:57;;;;;;;45.77;24.03;;;0.20;99.90;0.00;99380.00;;;;5015206;27;89446;-65
2021/12/09 06:00:23;;;;;;;50.33;24.20;;;0.20;99.90;0.00;99373.00;;;;5030476;27;109565;-65
2021/12/09 06:02:48;;;;;;;49.40;24.50;;;0.30;99.90;0.00;99377.00;;;;5033804;27;118946;-65
2021/12/09 06:05:14;;;;;;;44.83;22.77;;;0.30;99.90;0.00;99371.00;;;;5034393;27;91627;-63
2021/12/09 06:07:40;;;;;;;43.17;23.03;;;0.20;99.90;-0.10;99384.00;;;;5033891;27;100113;-63
2021/12/09 06:10:07;;;;;;;42.37;22.67;;;0.30;99.90;-0.10;99390.00;;;;5035192;27;87846;-64
2021/12/09 06:12:34;;;;;;;52.13;23.37;;;0.20;99.90;-0.10;99388.00;;;;5033776;27;94514;-64
2021/12/09 06:15:00;;;;;;;43.20;23.73;;;0.30;99.90;-0.10;99387.00;;;;5034972;27;88952;-64
2021/12/09 06:17:26;;;;;;;53.43;24.73;;;0.10;99.90;-0.10;99378.00;;;;5033738;27;113040;-64
2021/12/09 06:19:51;;;;;;;37.03;22.07;;;0.20;99.90;-0.10;99369.00;;;;5020338;27;109245;-64
2021/12/09 06:22:18;;;;;;;57.27;26.27;;;0.20;99.90;-0.10;99373.00;;;;5013330;27;117113;-65
2021/12/09 06:24:45;;;;;;;54.10;23.50;;;0.30;99.90;-0.10;99390.00;;;;5014079;27;117063;-64
2021/12/09 06:27:12;;;;;;;48.07;25.00;;;0.20;99.90;-0.20;99364.00;;;;5015046;27;87701;-64
2021/12/09 06:29:39;;;;;;;49.77;23.23;;;0.20;99.90;-0.10;99370.00;;;;5023593;27;87740;-64
2021/12/09 06:32:06;;;;;;;45.37;22.60;;;0.20;99.90;-0.20;99351.00;;;;5017443;27;89284;-64
2021/12/09 06:34:33;;;;;;;58.30;25.40;;;0.10;99.90;-0.10;99344.00;;;;5033620;27;89845;-64
2021/12/09 06:36:58;;;;;;;53.47;25.03;;;0.90;99.90;-0.20;99377.00;;;;5034911;27;87684;-64
2021/12/09 06:39:24;;;;;;;55.97;26.23;;;0.10;99.90;-0.20;99381.00;;;;5032235;27;87921;-64
2021/12/09 06:41:50;;;;;;;53.07;25.47;;;1.10;99.90;-0.20;99387.00;;;;5034256;27;103291;-64
2021/12/09 06:44:16;;;;;;;59.07;26.77;;;0.90;99.90;-0.20;99369.00;;;;5033695;27;107927;-66
2021/12/09 06:46:42;;;;;;;47.10;25.20;;;0.00;99.90;-0.20;99380.00;;;;5031775;27;113183;-64
2021/12/09 06:49:07;;;;;;;47.57;23.43;;;0.00;99.90;-0.20;99389.00;;;;5033925;27;107804;-66
2021/12/09 06:51:34;;;;;;;54.47;25.97;;;0.00;99.90;-0.20;99386.00;;;;5017750;27;116954;-64
2021/12/09 06:53:59;;;;;;;59.20;24.87;;;0.10;99.90;-0.20;99413.00;;;;5017248;27;87980;-65
2021/12/09 06:56:27;;;;;;;52.73;25.03;;;0.90;99.90;-0.30;99411.00;;;;5033351;27;112490;-64
2021/12/09 06:58:53;;;;;;;53.53;24.93;;;0.00;99.90;-0.20;99422.00;;;;5037700;27;87708;-64
2021/12/09 07:01:19;;;;;;;60.80;24.80;;;0.00;99.90;-0.30;99418.00;;;;5020916;27;108790;-64
2021/12/09 07:03:45;;;;;;;51.17;26.97;;;0.00;99.90;-0.20;99418.00;;;;5013102;27;117757;-65
2021/12/09 07:06:12;;;;;;;47.90;23.73;;;0.00;99.90;-0.30;99421.00;;;;5016145;27;88045;-64
2021/12/09 07:08:48;;;;;;;59.57;26.00;;;0.10;99.90;-0.20;99426.00;;;;5013821;27;87688;-66
2021/12/09 07:11:17;;;;;;;49.53;24.93;;;0.10;99.90;-0.20;99429.00;;;;5013893;27;87938;-66
2021/12/09 07:13:45;;;;;;;55.03;27.40;;;0.10;99.90;-0.20;99457.00;;;;5019641;27;88028;-65
2021/12/09 07:16:11;;;;;;;51.67;24.93;;;0.00;99.90;-0.20;99448.00;;;;5019205;27;87697;-64
2021/12/09 07:18:37;;;;;;;61.93;26.87;;;0.10;99.90;-0.20;99458.00;;;;5013302;27;88852;-65
2021/12/09 07:21:04;;;;;;;49.57;26.43;;;0.00;99.90;-0.20;99450.00;;;;5015380;27;89112;-65
2021/12/09 07:23:31;;;;;;;55.80;25.83;;;0.10;99.90;-0.20;99447.00;;;;5013594;27;88688;-66
2021/12/09 07:25:57;;;;;;;54.20;25.97;;;0.10;99.90;-0.20;99446.00;;;;5017291;27;112707;-65
2021/12/09 07:28:22;;;;;;;46.40;22.97;;;0.10;99.90;-0.20;99419.00;;;;5019650;27;107343;-64
2021/12/09 07:30:48;;;;;;;53.63;25.37;;;0.10;99.90;-0.20;99424.00;;;;5018590;27;101404;-65
2021/12/09 07:33:14;;;;;;;52.23;25.70;;;-0.40;99.90;-0.10;99434.00;;;;5012566;27;109475;-65
2021/12/09 07:35:40;;;;;;;57.70;24.23;;;0.20;99.90;-0.10;99428.00;;;;5013151;27;112923;-65
2021/12/09 07:38:06;;;;;;;59.37;24.37;;;0.20;99.90;-0.10;99432.00;;;;5014144;27;87416;-65
2021/12/09 07:40:33;;;;;;;58.87;24.90;;;0.10;99.90;-0.10;99440.00;;;;5016941;27;88461;-65
2021/12/09 07:42:59;;;;;;;47.87;23.97;;;0.20;99.90;-0.10;99443.00;;;;5012812;27;88711;-64
2021/12/09 07:45:26;;;;;;;48.50;24.17;;;0.30;99.90;-0.10;99424.00;;;;5016932;27;89037;-66
2021/12/09 07:47:52;;;;;;;49.60;23.73;;;0.10;99.90;-0.10;99414.00;;;;5014500;27;88324;-65
2021/12/09 07:50:22;;;;;;;45.57;24.80;;;0.20;99.90;0.00;99410.00;;;;5018554;27;117305;-65
2021/12/09 07:52:51;;;;;;;45.27;22.73;;;0.20;99.90;0.00;99409.00;;;;5013181;27;87822;-66
2021/12/09 07:55:20;;;;;;;48.70;25.73;;;0.70;99.90;0.00;99428.00;;;;5013436;27;87815;-66
2021/12/09 07:57:46;;;;;;;52.63;25.30;;;0.30;99.90;0.00;99434.00;;;;5013401;27;87690;-65
2021/12/09 08:00:21;;;;;;;50.60;25.73;;;0.40;99.90;0.00;99417.00;;;;5013189;27;96275;-65
2021/12/09 08:02:49;;;;;;;51.73;23.83;;;0.40;99.90;0.10;99413.00;;;;5011742;27;106565;-65
2021/12/09 08:05:17;;;;;;;53.10;25.03;;;0.50;99.90;0.10;99419.00;;;;5013432;27;87708;-65
2021/12/09 08:07:43;;;;;;;42.17;22.63;;;0.40;99.90;0.10;99423.00;;;;5013839;27;87783;-66
2021/12/09 08:10:12;;;;;;;51.00;23.30;;;0.40;99.90;0.10;99425.00;;;;5012416;27;88616;-65
2021/12/09 08:12:38;;;;;;;51.03;25.83;;;0.40;99.90;0.10;99433.00;;;;5012687;27;95233;-66
2021/12/09 08:15:09;;;;;;;55.40;24.67;;;0.40;99.90;0.10;99426.00;;;;5012487;27;99191;-65
2021/12/09 08:20:16;;;;;;;59.33;26.70;;;0.30;99.90;0.00;99434.00;;;;5011530;27;88168;-65
2021/12/09 08:22:43;;;;;;;58.37;26.93;;;0.30;99.90;0.00;99429.00;;;;5019043;27;87866;-66
2021/12/09 08:25:13;;;;;;;48.60;25.60;;;0.30;99.90;0.00;99430.00;;;;5017854;27;87931;-65
2021/12/09 08:27:42;;;;;;;51.53;24.13;;;0.30;99.90;0.10;99429.00;;;;5018148;27;87160;-65
2021/12/09 08:30:12;;;;;;;56.77;26.90;;;0.30;99.90;0.00;99428.00;;;;5012790;27;88812;-64
2021/12/09 08:32:38;;;;;;;78.77;39.50;;;0.40;99.90;0.00;99436.00;;;;5012924;27;88011;-66
2021/12/09 08:35:05;;;;;;;55.80;29.27;;;0.30;99.90;0.10;99419.00;;;;5013000;27;88739;-65
2021/12/09 08:37:30;;;;;;;66.97;34.23;;;0.30;99.90;0.10;99427.00;;;;5015320;27;88143;-64
2021/12/09 08:39:56;;;;;;;54.83;28.57;;;0.40;99.90;0.10;99428.00;;;;5013333;27;88205;-65
2021/12/09 08:42:24;;;;;;;59.87;30.37;;;0.40;99.90;0.10;99439.00;;;;5011464;27;118225;-64
2021/12/09 08:44:51;;;;;;;57.00;28.50;;;0.30;99.90;0.10;99424.00;;;;5016332;27;87727;-65
2021/12/09 08:47:18;;;;;;;63.87;32.13;;;0.40;99.90;0.10;99435.00;;;;5010736;27;87865;-65
2021/12/09 08:49:45;;;;;;;63.97;28.70;;;0.40;99.90;0.10;99455.00;;;;5015913;27;99669;-64
2021/12/09 08:52:11;;;;;;;52.60;27.80;;;0.50;99.90;0.10;99443.00;;;;5014913;27;88458;-65
2021/12/09 08:54:37;;;;;;;51.37;26.87;;;0.40;99.90;0.10;99447.00;;;;5018006;27;103297;-65
2021/12/09 08:57:04;;;;;;;61.70;29.40;;;0.40;99.90;0.10;99444.00;;;;5016355;27;109387;-65
2021/12/09 08:59:30;;;;;;;66.87;32.13;;;0.40;99.90;0.10;99456.00;;;;5012461;27;88795;-64
2021/12/09 09:01:56;;;;;;;68.37;40.27;;;0.20;99.90;0.10;99469.00;;;;5011664;27;99222;-64
2021/12/09 09:04:21;;;;;;;64.57;27.30;;;0.30;99.90;0.10;99463.00;;;;5018476;27;91338;-66
2021/12/09 09:06:53;;;;;;;60.83;28.43;;;0.40;99.90;0.10;99461.00;;;;5023403;27;96591;-64
2021/12/09 09:09:19;;;;;;;58.97;27.80;;;0.30;99.90;0.10;99454.00;;;;5012418;27;88499;-64
2021/12/09 09:11:45;;;;;;;71.67;33.63;;;0.40;99.90;0.10;99456.00;;;;5012374;27;88127;-65
2021/12/09 09:14:11;;;;;;;58.37;29.30;;;0.40;99.90;0.10;99472.00;;;;5011075;27;88170;-64
2021/12/09 09:16:38;;;;;;;67.27;38.23;;;0.30;99.90;0.10;99476.00;;;;5013876;27;87325;-63
2021/12/09 09:19:04;;;;;;;86.23;53.23;;;0.50;99.90;0.10;99453.00;;;;5011870;27;88693;-65
2021/12/09 09:21:31;;;;;;;67.27;38.57;;;0.50;99.90;0.20;99447.00;;;;5015753;27;88976;-64
2021/12/09 09:23:58;;;;;;;61.90;31.07;;;0.40;99.90;0.20;99458.00;;;;5011326;27;88940;-64
2021/12/09 09:26:24;;;;;;;51.47;28.70;;;0.50;99.90;0.30;99460.00;;;;5015031;27;87736;-64
2021/12/09 09:28:50;;;;;;;51.43;26.37;;;0.50;99.90;0.30;99460.00;;;;5017850;27;106145;-64
2021/12/09 09:31:15;;;;;;;52.77;27.53;;;0.50;99.90;0.40;99464.00;;;;5011811;27;88051;-64
2021/12/09 09:33:42;;;;;;;50.70;25.97;;;-0.60;99.90;0.40;99465.00;;;;5011503;27;87825;-64
2021/12/09 09:36:08;;;;;;;64.00;28.43;;;0.60;99.90;0.40;99468.00;;;;5015520;27;109015;-64
2021/12/09 09:38:34;;;;;;;58.03;28.33;;;-0.10;99.90;0.30;99456.00;;;;5013913;27;88331;-64
2021/12/09 09:41:10;;;;;;;51.40;27.00;;;1.20;99.90;0.30;99468.00;;;;5012435;27;118130;-65
2021/12/09 09:46:23;;;;;;;63.67;29.07;;;0.50;99.90;0.30;99459.00;;;;5012765;27;87656;-65
2021/12/09 09:48:52;;;;;;;59.07;27.50;;;0.60;99.90;0.30;99466.00;;;;5009193;27;89047;-65
2021/12/09 09:51:19;;;;;;;142.03;69.33;;;0.60;99.90;0.30;99463.00;;;;5013047;27;108294;-65
2021/12/09 09:53:47;;;;;;;89.23;45.60;;;1.40;99.90;0.30;99464.00;;;;5011830;27;88094;-65
2021/12/09 09:56:18;;;;;;;76.83;33.23;;;0.50;99.90;0.40;99457.00;;;;5011933;27;88041;-64
2021/12/09 09:59:02;;;;;;;64.20;30.07;;;0.60;99.90;0.40;99466.00;;;;5011634;27;89115;-64
2021/12/09 10:01:33;;;;;;;54.67;28.53;;;0.70;99.90;0.40;99457.00;;;;5020869;27;88616;-66
2021/12/09 10:04:25;;;;;;;68.27;38.67;;;0.80;99.90;0.40;99462.00;;;;5023027;27;87853;-66
2021/12/09 10:06:52;;;;;;;51.53;26.63;;;0.70;99.90;0.50;99452.00;;;;5011761;27;87044;-65
2021/12/09 10:09:18;;;;;;;73.30;38.30;;;0.70;99.90;0.60;99465.00;;;;5010864;27;108956;-66
2021/12/09 10:11:44;;;;;;;50.77;26.10;;;0.80;99.90;0.60;99470.00;;;;5012797;27;88888;-65
2021/12/09 10:14:19;;;;;;;60.00;28.37;;;1.00;99.90;0.60;99460.00;;;;5011964;27;88762;-65
2021/12/09 10:16:46;;;;;;;55.67;26.07;;;1.00;99.90;0.60;99453.00;;;;5013281;27;87652;-67
2021/12/09 10:19:22;;;;;;;44.87;24.90;;;0.90;99.90;0.70;99447.00;;;;5010712;27;88415;-63
2021/12/09 10:21:48;;;;;;;45.53;25.67;;;0.80;99.90;0.70;99446.00;;;;5010960;27;88859;-63
2021/12/09 10:24:16;;;;;;;45.10;26.37;;;1.00;99.90;0.70;99447.00;;;;5012244;27;87746;-64
2021/12/09 10:26:47;;;;;;;55.70;26.00;;;0.90;99.90;0.70;99451.00;;;;5017119;27;87897;-64
2021/12/09 10:29:24;;;;;;;50.60;26.00;;;0.90;99.90;0.70;99437.00;;;;5015414;27;88047;-64
2021/12/09 10:32:05;;;;;;;53.23;27.60;;;1.00;99.90;0.70;99440.00;;;;5022292;27;88288;-65
2021/12/09 10:34:45;;;;;;;57.40;27.17;;;1.00;99.90;0.70;99432.00;;;;5020842;27;87876;-64
2021/12/09 10:37:27;;;;;;;52.20;27.33;;;1.00;99.90;0.70;99437.00;;;;5022007;27;88015;-65
2021/12/09 10:40:09;;;;;;;57.97;28.33;;;0.90;99.90;0.70;99438.00;;;;5031307;27;88837;-64
2021/12/09 10:42:52;;;;;;;56.50;27.37;;;1.00;99.90;0.70;99437.00;;;;5016676;27;88276;-64
2021/12/09 10:45:37;;;;;;;51.67;26.63;;;1.50;99.90;0.70;99440.00;;;;5021535;27;87709;-64
2021/12/09 10:51:05;;;;;;;49.97;28.33;;;1.00;99.90;0.70;99423.00;;;;5014189;27;88071;-64
2021/12/09 10:53:46;;;;;;;57.13;26.37;;;1.00;99.90;0.80;99405.00;;;;5020197;27;87851;-64
2021/12/09 10:56:24;;;;;;;90.50;58.97;;;1.10;99.90;0.80;99406.00;;;;5015019;27;87614;-65
2021/12/09 10:58:50;;;;;;;53.03;26.17;;;0.20;99.90;0.80;99414.00;;;;5019845;27;86957;-64
2021/12/09 11:01:19;;;;;;;60.23;26.47;;;1.10;99.90;0.80;99400.00;;;;5014738;27;105229;-64
2021/12/09 11:03:53;;;;;;;44.73;24.30;;;1.10;99.90;0.90;99410.00;;;;5018381;27;88265;-65
2021/12/09 11:06:37;;;;;;;63.73;28.13;;;1.10;99.90;0.90;99398.00;;;;5013299;27;88758;-66
2021/12/09 11:09:09;;;;;;;70.63;35.00;;;1.10;99.90;0.90;99410.00;;;;5022694;27;88095;-64